Terminal Aerodrome Forecast
Issued by NWS Paducah, KY

Home | Current Version | Previous Version | Text Only | Print | Product List | Glossary On
Versions: 1 2 3 4 5 6 7 8 9 10 11 12 13 14 15 16 17 18 19 20 21 22 23 24 25
560
FTUS43 KPAH 210246 AAB
TAFPAH
TAF AMD
KPAH 210246Z 2103/2124 23004KT P6SM SCT024 OVC040
      TEMPO 2103/2107 BKN024
     FM210700 18004KT 5SM -DZ BR OVC025
     FM211100 18009KT 2SM -DZ BR OVC008
     FM211600 19011KT P6SM OVC008=

USA.gov is the U.S. government's official web portal to all federal, state and local government web resources and services.